createdAt,value
2023-09-01T00:01:31.060Z,11.31
2023-09-01T00:04:19.970Z,11.28
2023-09-01T00:06:47.396Z,11.26
2023-09-01T00:09:15.720Z,11.21
2023-09-01T00:11:44.484Z,11.16
2023-09-01T00:14:11.929Z,11.18
2023-09-01T00:16:39.230Z,11.13
2023-09-01T00:19:06.719Z,11.12
2023-09-01T00:21:34.985Z,11.10
2023-09-01T00:24:04.842Z,11.08
2023-09-01T00:26:32.229Z,11.05
2023-09-01T00:29:00.206Z,11.02
2023-09-01T00:31:28.692Z,11.04
2023-09-01T00:33:55.680Z,11.04
2023-09-01T00:36:24.036Z,10.98
2023-09-01T00:38:51.848Z,11.04
2023-09-01T00:41:19.790Z,11.01
2023-09-01T00:43:46.773Z,10.97
2023-09-01T00:46:14.151Z,10.93
2023-09-01T00:48:42.048Z,10.94
2023-09-01T00:51:10.230Z,10.93
2023-09-01T00:53:38.902Z,10.92
2023-09-01T00:56:06.081Z,10.88
2023-09-01T00:58:33.482Z,10.81
2023-09-01T01:01:01.544Z,10.80
2023-09-01T01:03:28.741Z,10.79
2023-09-01T01:06:11.030Z,10.75
2023-09-01T01:08:45.794Z,10.73
2023-09-01T01:11:21.051Z,10.73
2023-09-01T01:13:50.321Z,10.77
2023-09-01T01:16:21.101Z,10.70
2023-09-01T01:18:52.673Z,10.63
2023-09-01T01:21:27.221Z,10.66
2023-09-01T01:23:57.418Z,10.66
2023-09-01T01:26:26.303Z,10.66
2023-09-01T01:28:55.597Z,10.67
2023-09-01T01:31:25.936Z,10.68
2023-09-01T01:33:59.599Z,10.65
2023-09-01T01:36:55.425Z,10.65
2023-09-01T01:39:26.911Z,10.63
2023-09-01T01:42:04.529Z,10.61
2023-09-01T01:44:39.210Z,10.60
2023-09-01T01:47:09.458Z,10.59
2023-09-01T01:49:36.932Z,10.58
2023-09-01T01:52:06.526Z,10.57
2023-09-01T01:54:36.038Z,10.54
2023-09-01T01:57:06.123Z,10.57
2023-09-01T01:59:35.743Z,10.60
2023-09-01T02:02:07.047Z,10.63
2023-09-01T02:04:34.487Z,10.61
2023-09-01T02:07:01.555Z,10.61
2023-09-01T02:09:30.544Z,10.57
2023-09-01T02:11:58.463Z,10.58
2023-09-01T02:14:26.212Z,10.57
2023-09-01T02:16:54.162Z,10.55
2023-09-01T02:19:21.121Z,10.52
2023-09-01T02:21:48.466Z,10.50
2023-09-01T02:24:15.679Z,10.47
2023-09-01T02:26:44.542Z,10.47
2023-09-01T02:29:13.800Z,10.49
2023-09-01T02:31:44.782Z,10.49
2023-09-01T02:34:12.812Z,10.43
2023-09-01T02:36:40.326Z,10.46
2023-09-01T02:39:10.836Z,10.43
2023-09-01T02:41:37.782Z,10.42
2023-09-01T02:44:07.594Z,10.48
2023-09-01T02:46:34.591Z,10.47
2023-09-01T02:49:03.890Z,10.45
2023-09-01T02:51:31.261Z,10.46
2023-09-01T02:53:59.797Z,10.45
2023-09-01T02:56:26.796Z,10.50
2023-09-01T02:58:55.360Z,10.49
2023-09-01T03:01:23.033Z,10.49
2023-09-01T03:03:51.251Z,10.48
2023-09-01T03:06:18.665Z,10.44
2023-09-01T03:08:47.270Z,10.47
2023-09-01T03:11:14.278Z,10.47
2023-09-01T03:13:43.273Z,10.46
2023-09-01T03:16:10.630Z,10.39
2023-09-01T03:18:38.001Z,10.43
2023-09-01T03:21:12.789Z,10.34
2023-09-01T03:23:41.234Z,10.42
2023-09-01T03:26:10.204Z,10.38
2023-09-01T03:28:37.996Z,10.43
2023-09-01T03:31:10.312Z,10.39
2023-09-01T03:33:39.266Z,10.44
2023-09-01T03:36:09.260Z,10.44
2023-09-01T03:38:39.751Z,10.45
2023-09-01T03:41:09.132Z,10.44
2023-09-01T03:43:36.803Z,10.44
2023-09-01T03:46:08.483Z,10.43
2023-09-01T03:48:37.349Z,10.43
2023-09-01T03:51:11.502Z,10.37
2023-09-01T03:53:48.089Z,10.39
2023-09-01T03:56:20.984Z,10.44
2023-09-01T03:58:49.368Z,10.49
2023-09-01T04:01:17.701Z,10.51
2023-09-01T04:03:49.796Z,10.58
2023-09-01T04:06:17.166Z,10.57
2023-09-01T04:08:44.160Z,10.59
2023-09-01T04:11:11.173Z,10.63
2023-09-01T04:13:40.578Z,10.68
2023-09-01T04:16:09.408Z,10.70
2023-09-01T04:18:36.607Z,10.62
2023-09-01T04:21:06.581Z,10.52
2023-09-01T04:23:33.807Z,10.54
2023-09-01T04:26:03.676Z,10.48
2023-09-01T04:28:35.156Z,10.45
2023-09-01T04:31:05.105Z,10.41
2023-09-01T04:33:34.179Z,10.40
2023-09-01T04:36:04.591Z,10.38
2023-09-01T04:38:32.851Z,10.34
2023-09-01T04:41:03.304Z,10.33
2023-09-01T04:43:34.725Z,10.36
2023-09-01T04:49:07.588Z,10.35
2023-09-01T04:51:35.946Z,10.40
2023-09-01T04:54:04.095Z,10.39
2023-09-01T04:56:34.402Z,10.41
2023-09-01T04:59:02.974Z,10.46
2023-09-01T05:01:31.976Z,10.50
2023-09-01T05:04:04.446Z,10.51
2023-09-01T05:06:31.493Z,10.49
2023-09-01T05:08:58.947Z,10.51
2023-09-01T05:11:28.216Z,10.50
2023-09-01T05:14:01.674Z,10.57
2023-09-01T05:16:29.035Z,10.58
2023-09-01T05:19:00.905Z,10.59
2023-09-01T05:21:33.199Z,10.61
2023-09-01T05:24:00.223Z,10.62
2023-09-01T05:26:29.492Z,10.60
2023-09-01T05:29:06.273Z,10.66
2023-09-01T05:31:33.291Z,10.71
2023-09-01T05:34:03.456Z,10.73
2023-09-01T05:36:32.200Z,10.77
2023-09-01T05:38:59.260Z,10.87
2023-09-01T05:41:26.585Z,10.90
2023-09-01T05:43:56.638Z,10.95
2023-09-01T05:46:31.115Z,10.97
2023-09-01T05:48:59.075Z,11.01
2023-09-01T05:51:26.091Z,11.05
2023-09-01T05:53:53.491Z,11.10
2023-09-01T05:56:22.068Z,11.13
2023-09-01T05:58:52.951Z,11.18
2023-09-01T06:01:20.872Z,11.27
2023-09-01T06:03:51.286Z,11.21
2023-09-01T06:06:18.248Z,11.30
2023-09-01T06:08:50.023Z,11.45
2023-09-01T06:11:17.360Z,11.46
2023-09-01T06:13:44.621Z,11.61
2023-09-01T06:16:11.704Z,11.69
2023-09-01T06:18:40.281Z,11.71
2023-09-01T06:21:07.688Z,11.81
2023-09-01T06:23:36.077Z,11.89
2023-09-01T06:26:06.334Z,11.91
2023-09-01T06:28:34.934Z,11.96
2023-09-01T06:31:02.628Z,12.05
2023-09-01T06:33:30.828Z,12.05
2023-09-01T06:35:57.960Z,12.11
2023-09-01T06:38:25.993Z,12.18
2023-09-01T06:40:54.783Z,12.24
2023-09-01T06:43:23.818Z,12.30
2023-09-01T06:45:51.201Z,12.35
2023-09-01T06:48:18.367Z,12.41
2023-09-01T06:50:50.518Z,12.43
2023-09-01T06:53:17.466Z,12.43
2023-09-01T06:55:47.543Z,12.47
2023-09-01T06:58:15.617Z,12.60
2023-09-01T07:00:42.913Z,12.68
2023-09-01T07:03:09.842Z,12.72
2023-09-01T07:05:39.927Z,12.85
2023-09-01T07:08:14.182Z,12.92
2023-09-01T07:10:42.559Z,12.93
2023-09-01T07:13:13.160Z,12.98
2023-09-01T07:15:40.097Z,13.05
2023-09-01T07:18:09.955Z,13.17
2023-09-01T07:20:39.168Z,13.18
2023-09-01T07:23:06.571Z,13.25
2023-09-01T07:25:33.486Z,13.26
2023-09-01T07:28:00.895Z,13.29
2023-09-01T07:30:27.865Z,13.30
2023-09-01T07:32:55.008Z,13.25
2023-09-01T07:35:24.969Z,13.37
2023-09-01T07:37:54.130Z,13.39
2023-09-01T07:40:21.878Z,13.53
2023-09-01T07:42:49.739Z,13.58
2023-09-01T07:45:17.712Z,13.61
2023-09-01T07:47:49.622Z,13.66
2023-09-01T07:50:22.283Z,13.70
2023-09-01T07:52:49.233Z,13.73
2023-09-01T07:55:16.201Z,13.89
2023-09-01T07:57:44.718Z,14.01
2023-09-01T08:00:13.732Z,14.06
2023-09-01T08:02:42.952Z,14.22
2023-09-01T08:05:10.798Z,14.20
2023-09-01T08:07:40.744Z,14.17
2023-09-01T08:10:10.675Z,14.28
2023-09-01T08:12:40.354Z,14.40
2023-09-01T08:15:17.156Z,14.44
2023-09-01T08:17:45.129Z,14.52
2023-09-01T08:20:14.499Z,14.60
2023-09-01T08:22:43.006Z,14.51
2023-09-01T08:25:10.624Z,14.44
2023-09-01T08:27:37.838Z,14.52
2023-09-01T08:30:06.364Z,14.55
2023-09-01T08:32:34.592Z,14.62
2023-09-01T08:35:06.468Z,14.61
2023-09-01T08:37:33.890Z,14.65
2023-09-01T08:40:01.856Z,14.68
2023-09-01T08:42:31.488Z,14.74
2023-09-01T08:45:00.629Z,14.84
2023-09-01T08:47:33.427Z,14.96
2023-09-01T08:50:01.848Z,15.04
2023-09-01T08:52:30.611Z,15.19
2023-09-01T08:54:57.602Z,15.18
2023-09-01T08:57:25.934Z,15.22
2023-09-01T08:59:52.906Z,15.16
2023-09-01T09:02:19.859Z,15.24
2023-09-01T09:04:49.446Z,15.17
2023-09-01T09:07:18.518Z,15.26
2023-09-01T09:10:02.732Z,15.29
2023-09-01T09:12:43.062Z,15.32
2023-09-01T09:15:12.257Z,15.31
2023-09-01T09:17:47.306Z,15.27
2023-09-01T09:20:16.490Z,15.30
2023-09-01T09:22:58.235Z,15.31
2023-09-01T09:25:33.645Z,15.39
2023-09-01T09:28:17.046Z,15.48
2023-09-01T09:30:54.242Z,15.54
2023-09-01T09:33:34.519Z,15.51
2023-09-01T09:36:02.519Z,15.49
2023-09-01T09:38:47.686Z,15.62
2023-09-01T09:41:15.226Z,15.63
2023-09-01T09:43:49.771Z,15.71
2023-09-01T09:46:18.548Z,15.74
2023-09-01T09:48:46.513Z,15.80
2023-09-01T09:51:17.544Z,15.86
2023-09-01T09:53:47.400Z,15.90
2023-09-01T09:56:21.246Z,16.09
2023-09-01T09:58:50.041Z,16.16
2023-09-01T10:01:20.729Z,16.16
2023-09-01T10:03:50.077Z,16.16
2023-09-01T10:06:18.880Z,16.25
2023-09-01T10:08:48.971Z,16.36
2023-09-01T10:11:16.829Z,16.36
2023-09-01T10:13:47.392Z,16.32
2023-09-01T10:16:15.090Z,16.31
2023-09-01T10:18:45.207Z,16.45
2023-09-01T10:21:15.690Z,16.53
2023-09-01T10:23:45.584Z,16.64
2023-09-01T10:26:17.487Z,16.79
2023-09-01T10:29:02.678Z,16.89
2023-09-01T10:31:30.373Z,16.83
2023-09-01T10:34:15.885Z,16.93
2023-09-01T10:36:45.133Z,16.94
2023-09-01T10:39:23.568Z,16.95
2023-09-01T10:41:55.677Z,17.00
2023-09-01T10:44:27.748Z,17.16
2023-09-01T10:46:56.869Z,17.29
2023-09-01T10:49:57.610Z,17.28
2023-09-01T10:52:24.661Z,17.32
2023-09-01T10:55:01.477Z,17.44
2023-09-01T10:57:48.353Z,17.33
2023-09-01T11:00:34.545Z,17.37
2023-09-01T11:03:40.878Z,17.39
2023-09-01T11:06:10.172Z,17.59
2023-09-01T11:08:57.090Z,17.78
2023-09-01T11:11:24.761Z,17.72
2023-09-01T11:13:55.574Z,17.92
2023-09-01T11:16:24.000Z,18.16
2023-09-01T11:19:04.046Z,17.98
2023-09-01T11:21:32.329Z,17.86
2023-09-01T11:24:01.816Z,17.77
2023-09-01T11:26:30.055Z,17.95
2023-09-01T11:28:57.644Z,17.96
2023-09-01T11:31:24.638Z,17.92
2023-09-01T11:33:58.742Z,18.06
2023-09-01T11:36:25.701Z,18.23
2023-09-01T11:38:57.185Z,18.30
2023-09-01T11:41:27.915Z,18.28
2023-09-01T11:43:57.763Z,18.33
2023-09-01T11:46:32.933Z,18.31
2023-09-01T11:49:02.295Z,18.34
2023-09-01T11:51:32.978Z,18.27
2023-09-01T11:54:01.251Z,18.32
2023-09-01T11:56:28.499Z,18.46
2023-09-01T11:59:00.564Z,18.59
2023-09-01T12:01:49.788Z,18.68
2023-09-01T12:04:16.892Z,18.96
2023-09-01T12:06:49.130Z,19.05
2023-09-01T12:09:18.280Z,18.99
2023-09-01T12:12:00.183Z,18.89
2023-09-01T12:14:32.299Z,18.70
2023-09-01T12:17:04.932Z,18.66
2023-09-01T12:19:48.204Z,18.55
2023-09-01T12:22:15.994Z,18.62
2023-09-01T12:24:56.303Z,18.45
2023-09-01T12:27:27.244Z,18.39
2023-09-01T12:29:55.204Z,18.30
2023-09-01T12:32:22.453Z,18.39
2023-09-01T12:34:51.446Z,18.57
2023-09-01T12:37:20.769Z,18.66
2023-09-01T12:39:47.851Z,18.76
2023-09-01T12:42:14.795Z,18.93
2023-09-01T12:44:43.089Z,19.07
2023-09-01T12:47:10.581Z,19.14
2023-09-01T12:49:38.422Z,19.44
2023-09-01T12:52:06.205Z,19.50
2023-09-01T12:54:33.301Z,19.69
2023-09-01T12:57:01.511Z,19.72
2023-09-01T12:59:28.562Z,19.66
2023-09-01T13:01:55.950Z,19.61
2023-09-01T13:04:23.695Z,19.70
2023-09-01T13:06:50.768Z,19.73
2023-09-01T13:09:18.517Z,19.59
2023-09-01T13:11:46.910Z,19.60
2023-09-01T13:14:15.230Z,19.56
2023-09-01T13:16:42.381Z,19.55
2023-09-01T13:19:10.702Z,19.53
2023-09-01T13:21:37.662Z,19.56
2023-09-01T13:24:06.720Z,19.40
2023-09-01T13:26:34.704Z,19.34
2023-09-01T13:29:06.326Z,19.23
2023-09-01T13:31:33.702Z,19.16
2023-09-01T13:34:00.727Z,19.16
2023-09-01T13:36:28.971Z,19.24
2023-09-01T13:38:57.780Z,19.28
2023-09-01T13:41:29.329Z,19.17
2023-09-01T13:43:56.397Z,19.16
2023-09-01T13:46:28.362Z,19.29
2023-09-01T13:49:00.261Z,19.30
2023-09-01T13:51:29.420Z,19.25
2023-09-01T13:53:57.953Z,19.11
2023-09-01T13:56:26.329Z,19.00
2023-09-01T13:58:54.825Z,18.97
2023-09-01T14:01:21.891Z,18.83
2023-09-01T14:03:49.000Z,18.86
2023-09-01T14:06:17.836Z,18.80
2023-09-01T14:08:44.779Z,18.80
2023-09-01T14:11:12.889Z,18.76
2023-09-01T14:13:40.174Z,18.78
2023-09-01T14:16:09.274Z,18.78
2023-09-01T14:18:37.342Z,18.75
2023-09-01T14:21:06.350Z,18.71
2023-09-01T14:23:33.259Z,18.77
2023-09-01T14:26:00.320Z,18.80
2023-09-01T14:28:27.316Z,18.81
2023-09-01T14:30:54.880Z,18.89
2023-09-01T14:33:27.542Z,18.95
2023-09-01T14:36:05.146Z,19.03
2023-09-01T14:38:32.502Z,19.04
2023-09-01T14:40:59.536Z,19.04
2023-09-01T14:43:29.003Z,19.03
2023-09-01T14:45:57.495Z,18.85
2023-09-01T14:48:25.944Z,18.82
2023-09-01T14:50:52.913Z,18.66
2023-09-01T14:53:20.674Z,18.67
2023-09-01T14:55:47.818Z,18.55
2023-09-01T14:58:15.222Z,18.50
2023-09-01T15:00:42.688Z,18.49
2023-09-01T15:03:09.778Z,18.42
2023-09-01T15:05:40.211Z,18.39
2023-09-01T15:08:07.178Z,18.37
2023-09-01T15:10:36.484Z,18.38
2023-09-01T15:13:21.060Z,18.28
2023-09-01T15:15:49.695Z,18.38
2023-09-01T15:18:16.885Z,18.31
2023-09-01T15:20:45.635Z,18.38
2023-09-01T15:23:12.987Z,18.41
2023-09-01T15:25:41.310Z,18.45
2023-09-01T15:28:08.408Z,18.42
2023-09-01T15:30:35.388Z,18.43
2023-09-01T15:33:02.726Z,18.42
2023-09-01T15:35:34.590Z,18.36
2023-09-01T15:38:02.144Z,18.27
2023-09-01T15:40:30.096Z,18.33
2023-09-01T15:42:57.400Z,18.31
2023-09-01T15:45:25.542Z,18.31
2023-09-01T15:47:52.711Z,18.25
2023-09-01T15:50:34.954Z,18.24
2023-09-01T15:53:09.582Z,18.28
2023-09-01T15:55:39.203Z,18.39
2023-09-01T15:58:06.965Z,18.34
2023-09-01T16:00:36.023Z,18.34
2023-09-01T16:03:03.118Z,18.29
2023-09-01T16:05:32.575Z,18.31
2023-09-01T16:07:59.562Z,18.24
2023-09-01T16:10:27.189Z,18.26
2023-09-01T16:12:57.040Z,18.23
2023-09-01T16:15:26.791Z,18.16
2023-09-01T16:17:54.868Z,18.05
2023-09-01T16:20:22.293Z,18.05
2023-09-01T16:22:50.261Z,18.06
2023-09-01T16:25:18.324Z,18.03
2023-09-01T16:27:46.018Z,18.09
2023-09-01T16:30:14.050Z,18.10
2023-09-01T16:32:41.356Z,18.09
2023-09-01T16:35:23.867Z,18.04
2023-09-01T16:37:52.724Z,17.98
2023-09-01T16:40:24.182Z,17.93
2023-09-01T16:42:55.362Z,17.87
2023-09-01T16:45:22.419Z,17.85
2023-09-01T16:47:49.549Z,17.84
2023-09-01T16:50:17.930Z,17.82
2023-09-01T16:52:45.178Z,17.75
2023-09-01T16:55:12.559Z,17.67
2023-09-01T16:57:42.339Z,17.61
2023-09-01T17:00:12.483Z,17.58
2023-09-01T17:02:39.993Z,17.57
2023-09-01T17:05:09.098Z,17.54
2023-09-01T17:07:38.110Z,17.55
2023-09-01T17:10:07.542Z,17.60
2023-09-01T17:12:35.234Z,17.59
2023-09-01T17:15:03.412Z,17.60
2023-09-01T17:17:30.576Z,17.55
2023-09-01T17:19:57.568Z,17.51
2023-09-01T17:22:24.490Z,17.46
2023-09-01T17:24:51.736Z,17.39
2023-09-01T17:27:18.694Z,17.32
2023-09-01T17:29:45.689Z,17.24
2023-09-01T17:32:12.712Z,17.22
2023-09-01T17:34:42.894Z,17.18
2023-09-01T17:37:12.992Z,17.11
2023-09-01T17:39:40.009Z,17.07
2023-09-01T17:42:07.551Z,17.07
2023-09-01T17:44:34.595Z,17.05
2023-09-01T17:47:01.867Z,17.00
2023-09-01T17:49:30.623Z,16.98
2023-09-01T17:51:59.332Z,16.97
2023-09-01T17:54:27.104Z,16.92
2023-09-01T17:56:54.512Z,16.88
2023-09-01T17:59:21.558Z,16.85
2023-09-01T18:01:52.199Z,16.81
2023-09-01T18:04:20.558Z,16.75
2023-09-01T18:06:48.207Z,16.72
2023-09-01T18:09:15.649Z,16.67
2023-09-01T18:11:42.751Z,16.63
2023-09-01T18:14:09.894Z,16.61
2023-09-01T18:16:37.586Z,16.58
2023-09-01T18:19:05.187Z,16.56
2023-09-01T18:21:35.281Z,16.52
2023-09-01T18:24:08.431Z,16.44
2023-09-01T18:26:36.678Z,16.38
2023-09-01T18:29:03.706Z,16.34
2023-09-01T18:31:33.758Z,16.30
2023-09-01T18:34:01.729Z,16.24
2023-09-01T18:36:30.339Z,16.26
2023-09-01T18:38:58.521Z,16.24
2023-09-01T18:41:28.269Z,16.19
2023-09-01T18:43:57.766Z,16.16
2023-09-01T18:46:32.480Z,16.10
2023-09-01T18:49:02.575Z,16.06
2023-09-01T18:51:29.514Z,16.03
2023-09-01T18:53:56.990Z,15.98
2023-09-01T18:56:24.157Z,15.96
2023-09-01T18:58:51.441Z,15.94
2023-09-01T19:01:19.576Z,15.92
2023-09-01T19:03:47.380Z,15.88
2023-09-01T19:06:27.362Z,15.84
2023-09-01T19:08:54.389Z,15.83
2023-09-01T19:11:22.283Z,15.83
2023-09-01T19:13:56.434Z,15.81
2023-09-01T19:16:23.854Z,15.79
2023-09-01T19:18:51.478Z,15.79
2023-09-01T19:21:31.652Z,15.77
2023-09-01T19:23:58.635Z,15.75
2023-09-01T19:26:27.221Z,15.70
2023-09-01T19:28:56.640Z,15.70
2023-09-01T19:31:26.328Z,15.65
2023-09-01T19:33:56.368Z,15.63
2023-09-01T19:36:29.524Z,15.61
2023-09-01T19:38:57.255Z,15.55
2023-09-01T19:41:24.360Z,15.54
2023-09-01T19:43:56.788Z,15.53
2023-09-01T19:46:24.300Z,15.46
2023-09-01T19:48:53.545Z,15.44
2023-09-01T19:51:21.841Z,15.42
2023-09-01T19:53:49.089Z,15.39
2023-09-01T19:56:17.650Z,15.39
2023-09-01T19:58:50.054Z,15.41
2023-09-01T20:01:27.164Z,15.37
2023-09-01T20:03:54.557Z,15.37
2023-09-01T20:06:27.273Z,15.33
2023-09-01T20:09:02.086Z,15.26
2023-09-01T20:11:29.098Z,15.21
2023-09-01T20:13:57.489Z,15.20
2023-09-01T20:16:31.672Z,15.18
2023-09-01T20:19:19.031Z,15.14
2023-09-01T20:21:47.377Z,15.12
2023-09-01T20:24:14.753Z,15.11
2023-09-01T20:26:41.665Z,15.09
2023-09-01T20:29:08.573Z,15.05
2023-09-01T20:31:37.984Z,15.02
2023-09-01T20:34:08.439Z,14.98
2023-09-01T20:36:35.463Z,14.95
2023-09-01T20:39:02.866Z,14.95
2023-09-01T20:41:29.763Z,14.95
2023-09-01T20:43:56.701Z,14.94
2023-09-01T20:46:23.753Z,14.95
2023-09-01T20:48:51.205Z,14.96
2023-09-01T20:51:19.167Z,14.95
2023-09-01T20:53:46.390Z,14.92
2023-09-01T20:56:13.358Z,14.89
2023-09-01T20:58:40.334Z,14.86
2023-09-01T21:01:07.285Z,14.81
2023-09-01T21:03:34.752Z,14.73
2023-09-01T21:06:01.805Z,14.70
2023-09-01T21:08:28.744Z,14.66
2023-09-01T21:10:56.030Z,14.62
2023-09-01T21:13:22.964Z,14.59
2023-09-01T21:15:51.827Z,14.56
2023-09-01T21:18:19.654Z,14.52
2023-09-01T21:20:46.713Z,14.50
2023-09-01T21:23:13.742Z,14.48
2023-09-01T21:25:41.005Z,14.48
2023-09-01T21:28:07.904Z,14.51
2023-09-01T21:30:36.617Z,14.54
2023-09-01T21:33:07.730Z,14.59
2023-09-01T21:35:35.070Z,14.57
2023-09-01T21:38:02.742Z,14.57
2023-09-01T21:40:30.143Z,14.58
2023-09-01T21:42:57.655Z,14.58
2023-09-01T21:45:25.018Z,14.56
2023-09-01T21:47:52.692Z,14.54
2023-09-01T21:50:19.884Z,14.51
2023-09-01T21:52:47.314Z,14.51
2023-09-01T21:55:14.377Z,14.45
2023-09-01T21:57:42.676Z,14.42
2023-09-01T22:00:10.412Z,14.37
2023-09-01T22:02:39.890Z,14.34
2023-09-01T22:05:07.282Z,14.31
2023-09-01T22:07:34.924Z,14.22
2023-09-01T22:10:02.001Z,14.16
2023-09-01T22:12:29.871Z,14.11
2023-09-01T22:14:57.739Z,14.12
2023-09-01T22:17:25.645Z,14.08
2023-09-01T22:19:53.680Z,14.09
2023-09-01T22:22:21.005Z,14.08
2023-09-01T22:24:48.162Z,14.05
2023-09-01T22:27:16.175Z,14.04
2023-09-01T22:29:43.047Z,13.98
2023-09-01T22:32:11.329Z,13.95
2023-09-01T22:34:39.358Z,13.92
2023-09-01T22:37:06.802Z,13.84
2023-09-01T22:39:34.831Z,13.83
2023-09-01T22:42:03.198Z,13.80
2023-09-01T22:44:30.198Z,13.73
2023-09-01T22:46:58.613Z,13.70
2023-09-01T22:49:26.610Z,13.67
2023-09-01T22:51:53.796Z,13.70
2023-09-01T22:54:21.089Z,13.73
2023-09-01T22:56:47.994Z,13.71
2023-09-01T22:59:15.117Z,13.62
2023-09-01T23:01:43.188Z,13.61
2023-09-01T23:04:10.222Z,13.63
2023-09-01T23:06:37.231Z,13.61
2023-09-01T23:09:06.674Z,13.61
2023-09-01T23:11:34.148Z,13.63
2023-09-01T23:14:01.544Z,13.59
2023-09-01T23:16:29.044Z,13.54
2023-09-01T23:19:00.444Z,13.49
2023-09-01T23:21:27.857Z,13.48
2023-09-01T23:23:56.192Z,13.49
2023-09-01T23:26:26.068Z,13.48
2023-09-01T23:28:53.331Z,13.42
2023-09-01T23:31:26.413Z,13.31
2023-09-01T23:33:54.995Z,13.28
2023-09-01T23:36:22.323Z,13.28
2023-09-01T23:38:49.244Z,13.34
2023-09-01T23:41:16.191Z,13.28
2023-09-01T23:43:43.942Z,13.18
2023-09-01T23:46:12.230Z,13.04
2023-09-01T23:48:39.716Z,13.06
2023-09-01T23:51:08.194Z,13.06
2023-09-01T23:53:37.892Z,12.83
2023-09-01T23:56:05.039Z,12.88
2023-09-01T23:58:31.940Z,12.89
